METAR Data
IDs: Format: Raw Decoded Include TAF

Data at: 1431 UTC 20 Oct 2021

METAR for:KSPB (Scappoose Ind Airpar, OR, US)
Text:KSPB 201353Z AUTO 16009G20KT 8SM -RA FEW022 BKN043 OVC050 12/09 A2974 RMK AO2 SLP069 P0006 T01170094
Temperature: 11.7°C ( 53°F)
Dewpoint: 9.4°C ( 49°F) [RH = 86%]
Pressure (altimeter):29.74 inches Hg (1007.2 mb) [Sea level pressure: 1006.9 mb]
Winds:from the SSE (160 degrees) at 10 MPH (9 knots; 4.6 m/s) gusting to 23 MPH (20 knots; 10.3 m/s)
Visibility: 8 sm ( 13 km)
Ceiling:4300 feet AGL
Clouds: few clouds at 2200 feet AGL, broken clouds at 4300 feet AGL, overcast cloud deck at 5000 feet AGL
Weather:-RA (light rain)
QC Flag:automated observation with no human augmentation